Time;durP1;ratioP1;P1;durP2;ratioP2;P2;SDS_P1;SDS_P2;PMS_P1;PMS_P2;Temp;Humidity;BMP_temperature;BMP_pressure;BME280_temperature;BME280_humidity;BME280_pressure;Samples;Min_cycle;Max_cycle;Signal;HPM_P1;HPM_P2
2023/08/11 00:00:53;;;;;;;5.25;3.67;;;18.50;99.90;;;;;;4996291;28;20556;-48
2023/08/11 00:03:19;;;;;;;5.97;3.95;;;18.50;99.90;;;;;;4995587;28;20034;-49
2023/08/11 00:05:45;;;;;;;4.75;3.92;;;18.50;99.90;;;;;;5010314;28;20088;-48
2023/08/11 00:08:13;;;;;;;3.95;3.55;;;18.50;99.90;;;;;;5009768;28;20053;-49
2023/08/11 00:10:40;;;;;;;4.93;3.78;;;18.40;99.90;;;;;;4996060;28;20511;-49
2023/08/11 00:13:08;;;;;;;5.90;4.20;;;18.40;99.90;;;;;;4995665;28;20096;-49
2023/08/11 00:15:39;;;;;;;5.03;3.97;;;18.50;99.90;;;;;;4996227;28;20038;-49
2023/08/11 00:18:06;;;;;;;7.22;3.47;;;;;;;;;;5009857;28;20042;-49
2023/08/11 00:20:31;;;;;;;5.68;3.80;;;18.40;99.90;;;;;;4995749;28;20029;-49
2023/08/11 00:22:57;;;;;;;6.97;3.90;;;18.50;99.90;;;;;;4995950;28;20042;-49
2023/08/11 00:25:23;;;;;;;7.72;4.78;;;18.30;99.90;;;;;;4995262;28;20393;-49
2023/08/11 00:27:50;;;;;;;5.78;4.35;;;;;;;;;;4995462;28;20038;-49
2023/08/11 00:30:16;;;;;;;6.18;4.57;;;;;;;;;;4995295;28;20030;-49
2023/08/11 00:32:42;;;;;;;5.80;3.97;;;18.40;99.90;;;;;;5010032;28;20069;-49
2023/08/11 00:35:08;;;;;;;5.60;4.40;;;;;;;;;;4995305;28;20072;-50
2023/08/11 00:37:34;;;;;;;6.28;4.00;;;18.30;99.90;;;;;;5009453;28;20050;-49
2023/08/11 00:40:00;;;;;;;5.85;4.50;;;18.00;99.90;;;;;;4995075;28;20042;-49
2023/08/11 00:42:26;;;;;;;5.78;4.15;;;18.10;99.90;;;;;;4995133;28;20117;-50
2023/08/11 00:44:52;;;;;;;6.22;4.50;;;18.10;99.90;;;;;;4995092;28;20092;-49
2023/08/11 00:47:18;;;;;;;9.27;4.90;;;18.10;99.90;;;;;;4994977;28;20031;-48
2023/08/11 00:49:44;;;;;;;6.97;4.70;;;17.90;99.90;;;;;;4995144;28;20166;-49
2023/08/11 00:52:11;;;;;;;6.95;5.25;;;18.00;99.90;;;;;;4995004;28;20046;-49
2023/08/11 00:54:39;;;;;;;5.97;4.90;;;17.90;99.90;;;;;;4994856;28;20030;-49
2023/08/11 00:57:05;;;;;;;5.32;4.82;;;17.90;99.90;;;;;;4994806;28;20033;-48
2023/08/11 00:59:31;;;;;;;8.73;6.03;;;18.00;99.90;;;;;;4994670;28;20034;-48
2023/08/11 01:01:57;;;;;;;10.02;5.03;;;18.00;99.90;;;;;;5009276;28;20042;-49
2023/08/11 01:04:22;;;;;;;12.35;5.22;;;18.00;99.90;;;;;;5009173;28;20400;-48
2023/08/11 01:06:57;;;;;;;9.02;5.75;;;;;;;;;;5009135;28;20038;-48
2023/08/11 01:10:12;;;;;;;6.22;4.70;;;17.90;99.90;;;;;;4994566;28;20106;-49
2023/08/11 01:12:42;;;;;;;7.18;4.72;;;;;;;;;;4994716;28;20038;-49
2023/08/11 01:15:20;;;;;;;6.57;5.07;;;17.80;99.90;;;;;;4994590;28;20041;-49
2023/08/11 01:17:49;;;;;;;7.93;4.85;;;17.80;99.90;;;;;;4994674;28;20034;-49
2023/08/11 01:20:16;;;;;;;7.70;5.30;;;;;;;;;;4994079;28;20485;-49
2023/08/11 01:22:46;;;;;;;5.78;5.18;;;;;;;;;;4994844;28;20034;-48
2023/08/11 01:25:12;;;;;;;7.85;5.30;;;;;;;;;;5008340;28;20132;-50
2023/08/11 01:27:48;;;;;;;6.90;4.97;;;17.40;99.90;;;;;;4994389;28;20080;-49
2023/08/11 01:30:14;;;;;;;6.80;5.18;;;;;;;;;;4994274;28;20026;-49
2023/08/11 01:32:40;;;;;;;5.78;5.18;;;;;;;;;;4994148;28;20030;-48
2023/08/11 01:35:08;;;;;;;6.70;5.75;;;17.60;99.90;;;;;;4994053;28;20034;-48
2023/08/11 01:37:34;;;;;;;10.45;5.28;;;17.60;99.90;;;;;;4976082;28;20398;-49
2023/08/11 01:40:00;;;;;;;7.47;5.10;;;17.70;99.90;;;;;;4994051;28;20046;-48
2023/08/11 01:42:25;;;;;;;6.65;4.85;;;17.80;99.90;;;;;;4994110;28;20034;-48
2023/08/11 01:44:52;;;;;;;7.30;5.43;;;17.60;99.90;;;;;;4993929;28;20042;-47
2023/08/11 01:47:19;;;;;;;7.68;5.40;;;17.60;99.90;;;;;;4994125;28;20092;-48
2023/08/11 01:49:46;;;;;;;5.97;5.25;;;17.60;99.90;;;;;;5008238;28;20057;-50
2023/08/11 01:52:13;;;;;;;7.20;5.43;;;;;;;;;;4994282;28;20042;-51
2023/08/11 01:54:42;;;;;;;7.20;5.47;;;17.30;99.90;;;;;;4993779;28;20030;-48
2023/08/11 01:57:09;;;;;;;6.10;5.30;;;;;;;;;;4994289;28;20042;-47
2023/08/11 01:59:35;;;;;;;7.88;6.00;;;17.00;99.90;;;;;;4993697;28;20468;-49
2023/08/11 02:02:01;;;;;;;6.78;5.72;;;;;;;;;;4993991;28;20023;-50
2023/08/11 02:04:28;;;;;;;7.53;5.57;;;;;;;;;;4993952;28;20054;-48
2023/08/11 02:06:54;;;;;;;7.78;5.72;;;17.40;99.90;;;;;;4994052;28;20041;-48
2023/08/11 02:09:20;;;;;;;7.22;5.50;;;17.40;99.90;;;;;;4993475;28;20105;-47
2023/08/11 02:11:46;;;;;;;6.63;5.60;;;17.30;99.90;;;;;;4993748;28;20027;-48
2023/08/11 02:14:12;;;;;;;9.07;6.63;;;17.30;99.90;;;;;;4994155;28;20030;-49
2023/08/11 02:16:38;;;;;;;7.95;5.50;;;17.30;99.90;;;;;;4993718;28;20540;-48
2023/08/11 02:19:05;;;;;;;6.40;5.40;;;17.40;99.90;;;;;;4993533;28;20042;-48
2023/08/11 02:21:31;;;;;;;6.45;5.32;;;17.30;99.90;;;;;;4993725;28;20041;-49
2023/08/11 02:23:56;;;;;;;7.05;5.15;;;17.30;99.90;;;;;;4993557;28;20030;-48
2023/08/11 02:26:22;;;;;;;9.25;5.65;;;17.30;99.90;;;;;;5008271;28;20397;-47
2023/08/11 02:28:48;;;;;;;7.15;5.38;;;17.30;99.90;;;;;;4993697;28;20023;-48
2023/08/11 02:31:14;;;;;;;6.88;5.97;;;17.30;99.90;;;;;;4993669;28;20057;-48
2023/08/11 02:33:40;;;;;;;7.18;5.10;;;17.40;99.90;;;;;;4993435;28;20446;-49
2023/08/11 02:36:06;;;;;;;6.57;5.38;;;17.30;99.90;;;;;;4976930;28;20042;-49
2023/08/11 02:38:33;;;;;;;8.15;5.70;;;17.40;99.90;;;;;;4997449;28;20046;-48
2023/08/11 02:40:58;;;;;;;7.22;5.10;;;17.50;99.90;;;;;;5011860;28;20038;-49
2023/08/11 02:43:24;;;;;;;14.55;6.72;;;17.40;99.90;;;;;;4997315;28;20386;-50
2023/08/11 02:45:50;;;;;;;12.07;5.70;;;17.40;99.90;;;;;;4997672;28;20156;-49
2023/08/11 02:48:16;;;;;;;6.95;5.28;;;17.50;99.90;;;;;;4997491;28;20455;-49
2023/08/11 02:50:42;;;;;;;8.88;5.88;;;17.50;99.90;;;;;;4997192;28;20038;-49
2023/08/11 02:53:09;;;;;;;6.88;5.60;;;17.50;99.90;;;;;;4997828;28;20018;-48
2023/08/11 02:55:35;;;;;;;8.15;5.60;;;17.50;99.90;;;;;;4997148;28;20038;-49
2023/08/11 02:58:01;;;;;;;6.53;5.82;;;17.50;99.90;;;;;;4996890;28;20459;-50
2023/08/11 03:00:28;;;;;;;11.45;5.97;;;17.40;99.90;;;;;;4997023;28;20038;-49
2023/08/11 03:02:54;;;;;;;8.55;5.50;;;17.40;99.90;;;;;;4996837;28;20049;-50
2023/08/11 03:05:20;;;;;;;7.80;6.03;;;17.50;99.90;;;;;;4997084;28;20072;-47
2023/08/11 03:07:47;;;;;;;7.82;5.75;;;;;;;;;;4997117;28;20509;-51
2023/08/11 03:10:13;;;;;;;9.75;6.38;;;;;;;;;;4996887;28;20026;-49
2023/08/11 03:12:39;;;;;;;9.80;5.93;;;;;;;;;;4996981;28;20061;-50
2023/08/11 03:15:06;;;;;;;9.80;5.88;;;;;;;;;;4996831;28;20034;-50
2023/08/11 03:17:32;;;;;;;9.00;5.80;;;;;;;;;;4996815;28;20030;-49
2023/08/11 03:19:59;;;;;;;12.73;5.53;;;;;;;;;;4996441;28;20034;-49
2023/08/11 03:22:25;;;;;;;10.55;6.18;;;;;;;;;;4996898;28;20438;-50
2023/08/11 03:24:52;;;;;;;9.32;5.57;;;;;;;;;;4996861;28;20030;-50
2023/08/11 03:27:18;;;;;;;9.45;5.55;;;;;;;;;;5010876;28;20501;-49
2023/08/11 03:29:44;;;;;;;5.88;4.93;;;;;;;;;;4996596;28;20026;-49
2023/08/11 03:32:10;;;;;;;6.90;5.47;;;17.10;99.90;;;;;;4996660;28;20023;-49
2023/08/11 03:34:37;;;;;;;11.35;5.30;;;17.20;99.90;;;;;;4996480;28;20049;-51
2023/08/11 03:37:03;;;;;;;9.38;5.15;;;;;;;;;;4996424;28;20046;-49
2023/08/11 03:39:29;;;;;;;8.35;4.93;;;;;;;;;;5010760;28;20482;-50
2023/08/11 03:41:55;;;;;;;9.65;5.65;;;17.10;99.90;;;;;;4996173;28;20029;-50
2023/08/11 03:44:20;;;;;;;8.68;5.57;;;17.10;99.90;;;;;;4996226;28;20026;-49
2023/08/11 03:46:46;;;;;;;7.95;4.57;;;17.10;99.90;;;;;;5010051;28;20202;-49
2023/08/11 03:49:12;;;;;;;9.52;4.70;;;17.10;99.90;;;;;;4996165;28;20089;-49
2023/08/11 03:51:38;;;;;;;8.10;5.30;;;17.10;99.90;;;;;;4996042;28;20538;-49
2023/08/11 03:54:04;;;;;;;8.90;5.47;;;17.10;99.90;;;;;;4994125;28;20121;-50
2023/08/11 03:56:30;;;;;;;7.28;5.00;;;17.10;99.90;;;;;;4977705;28;20374;-50
2023/08/11 03:58:56;;;;;;;5.85;4.70;;;17.10;99.90;;;;;;4995860;28;20474;-49
2023/08/11 04:01:22;;;;;;;7.32;4.90;;;17.00;99.90;;;;;;5010280;28;20057;-49
2023/08/11 04:03:48;;;;;;;8.48;4.97;;;17.10;99.90;;;;;;4995827;28;20031;-49
2023/08/11 04:06:14;;;;;;;7.38;4.90;;;17.10;99.90;;;;;;4995724;28;20030;-49
2023/08/11 04:08:40;;;;;;;5.55;4.30;;;17.00;99.90;;;;;;4995788;28;20379;-52
2023/08/11 04:11:05;;;;;;;6.65;4.93;;;17.00;99.90;;;;;;5010477;28;20042;-51
2023/08/11 04:13:32;;;;;;;8.27;5.40;;;17.10;99.90;;;;;;5009990;28;20050;-49
2023/08/11 04:15:59;;;;;;;14.23;5.25;;;17.10;99.90;;;;;;5010112;28;20042;-50
2023/08/11 04:18:25;;;;;;;7.82;4.88;;;17.10;99.90;;;;;;4995561;28;20039;-49
2023/08/11 04:20:50;;;;;;;8.63;5.03;;;17.20;99.90;;;;;;4995390;28;20080;-47
2023/08/11 04:23:16;;;;;;;8.57;4.85;;;17.20;99.90;;;;;;4995785;28;20371;-48
2023/08/11 04:25:45;;;;;;;11.43;4.72;;;17.30;99.90;;;;;;4995187;28;20030;-49
2023/08/11 04:28:10;;;;;;;10.13;5.07;;;17.30;99.90;;;;;;4994861;28;20146;-49
2023/08/11 04:30:37;;;;;;;8.00;4.78;;;17.20;99.90;;;;;;4991299;28;20078;-49
2023/08/11 04:33:03;;;;;;;6.63;4.57;;;17.20;99.90;;;;;;4995440;28;20045;-49
2023/08/11 04:35:29;;;;;;;6.88;4.57;;;17.30;99.90;;;;;;5009164;28;20035;-48
2023/08/11 04:37:55;;;;;;;6.13;4.80;;;17.30;99.90;;;;;;4995057;28;20075;-49
2023/08/11 04:40:21;;;;;;;7.65;4.57;;;17.40;99.90;;;;;;4995111;28;20478;-48
2023/08/11 04:42:46;;;;;;;9.27;5.30;;;17.40;99.90;;;;;;4995333;28;20124;-49
2023/08/11 04:45:14;;;;;;;6.55;4.30;;;17.50;99.90;;;;;;4993244;28;20046;-48
2023/08/11 04:47:41;;;;;;;5.60;4.22;;;17.60;99.90;;;;;;4994885;28;20038;-48
2023/08/11 04:50:11;;;;;;;6.00;4.03;;;17.60;99.90;;;;;;4994258;28;20037;-48
2023/08/11 04:52:37;;;;;;;7.30;4.57;;;17.50;99.90;;;;;;4992176;28;20034;-48
2023/08/11 04:55:03;;;;;;;9.15;5.10;;;17.70;99.90;;;;;;4993990;28;20694;-48
2023/08/11 04:57:29;;;;;;;6.60;4.50;;;17.50;99.90;;;;;;4992709;28;20027;-49
2023/08/11 04:59:55;;;;;;;10.43;4.72;;;17.60;99.90;;;;;;4993446;28;20034;-48
2023/08/11 05:02:20;;;;;;;8.68;5.07;;;17.60;99.90;;;;;;4994366;28;20110;-48
2023/08/11 05:04:46;;;;;;;7.47;4.90;;;17.70;99.90;;;;;;4993991;28;20026;-49
2023/08/11 05:07:12;;;;;;;6.25;4.13;;;17.80;99.90;;;;;;4991648;28;20494;-46
2023/08/11 05:09:38;;;;;;;5.47;4.32;;;17.80;99.90;;;;;;4994922;28;20117;-49
2023/08/11 05:12:04;;;;;;;7.68;4.47;;;17.80;99.90;;;;;;4994365;28;20041;-48
2023/08/11 05:14:30;;;;;;;8.68;4.40;;;;;;;;;;4975473;28;20442;-49
2023/08/11 05:16:57;;;;;;;8.75;4.03;;;;;;;;;;4994295;28;20386;-48
2023/08/11 05:19:22;;;;;;;6.03;4.50;;;18.00;99.90;;;;;;4994464;28;20434;-49
2023/08/11 05:21:49;;;;;;;5.55;4.10;;;18.10;99.90;;;;;;5024803;28;20034;-48
2023/08/11 05:24:14;;;;;;;5.78;4.30;;;18.10;99.90;;;;;;4994243;28;20049;-48
2023/08/11 05:26:40;;;;;;;7.82;3.83;;;18.10;99.90;;;;;;4994823;28;20077;-48
2023/08/11 05:29:06;;;;;;;9.45;3.72;;;18.00;99.90;;;;;;4994203;28;20023;-49
2023/08/11 05:31:32;;;;;;;4.57;3.65;;;18.20;99.90;;;;;;4994257;28;20069;-49
2023/08/11 05:33:58;;;;;;;5.55;4.03;;;18.20;99.90;;;;;;4994076;28;20164;-49
2023/08/11 05:36:24;;;;;;;6.90;3.50;;;18.30;99.90;;;;;;4994321;28;20111;-50
2023/08/11 05:38:50;;;;;;;6.70;3.95;;;18.30;99.90;;;;;;5024600;28;20559;-48
2023/08/11 05:41:16;;;;;;;8.05;4.07;;;18.30;99.90;;;;;;4993948;28;20034;-49
2023/08/11 05:43:42;;;;;;;5.53;3.90;;;18.50;99.90;;;;;;4994569;28;20103;-49
2023/08/11 05:46:08;;;;;;;5.35;2.90;;;18.50;99.90;;;;;;4993870;28;20425;-48
2023/08/11 05:48:37;;;;;;;5.32;3.83;;;18.30;99.90;;;;;;4994078;28;20019;-48
2023/08/11 05:51:04;;;;;;;7.10;4.10;;;18.30;99.90;;;;;;4994215;28;20026;-49
2023/08/11 05:53:30;;;;;;;5.35;3.35;;;18.40;99.90;;;;;;4993981;28;20385;-49
2023/08/11 05:55:56;;;;;;;3.85;3.05;;;18.50;99.90;;;;;;4994056;28;20388;-49
2023/08/11 05:58:22;;;;;;;5.22;3.30;;;18.40;99.90;;;;;;4993876;28;20034;-49
2023/08/11 06:00:48;;;;;;;6.78;3.58;;;18.30;99.90;;;;;;4993851;28;20022;-48
2023/08/11 06:03:15;;;;;;;8.20;3.78;;;18.50;99.90;;;;;;4975833;28;20049;-48
2023/08/11 06:05:41;;;;;;;7.53;3.60;;;;;;;;;;4993515;28;20022;-48
2023/08/11 06:08:07;;;;;;;4.75;3.50;;;;;;;;;;4993693;28;20050;-49
2023/08/11 06:10:34;;;;;;;6.40;3.20;;;19.10;99.90;;;;;;4992986;28;20022;-48
2023/08/11 06:13:00;;;;;;;5.18;3.47;;;;;;;;;;4993278;28;20026;-49
2023/08/11 06:15:26;;;;;;;7.13;3.75;;;19.20;99.90;;;;;;4991174;28;20045;-49
2023/08/11 06:17:51;;;;;;;7.32;3.45;;;19.10;99.90;;;;;;5006607;28;20042;-48
2023/08/11 06:20:18;;;;;;;7.78;3.55;;;;;;;;;;5024084;28;20046;-48
2023/08/11 06:22:47;;;;;;;7.72;3.60;;;19.30;99.90;;;;;;4993075;28;20053;-48
2023/08/11 06:25:16;;;;;;;7.72;3.58;;;;;;;;;;4985244;28;20439;-49
2023/08/11 06:27:44;;;;;;;7.13;3.25;;;;;;;;;;4993175;28;20026;-47
2023/08/11 06:30:10;;;;;;;6.55;3.45;;;19.50;99.90;;;;;;4992727;28;20027;-48
2023/08/11 06:32:37;;;;;;;7.38;3.25;;;19.60;99.90;;;;;;5007892;28;20046;-48
2023/08/11 06:35:03;;;;;;;5.28;2.90;;;;;;;;;;4993544;28;20037;-48
2023/08/11 06:37:29;;;;;;;8.65;4.53;;;20.00;99.90;;;;;;5008266;28;20034;-48
2023/08/11 06:39:58;;;;;;;8.00;3.92;;;20.00;99.90;;;;;;4991713;28;20054;-49
2023/08/11 06:42:24;;;;;;;4.68;2.83;;;20.00;99.90;;;;;;4993461;28;20030;-48
2023/08/11 06:44:50;;;;;;;9.50;3.38;;;;;;;;;;4990367;28;20068;-49
2023/08/11 06:47:16;;;;;;;5.15;3.35;;;20.20;99.90;;;;;;4989798;28;20065;-49
2023/08/11 06:49:41;;;;;;;4.78;3.03;;;20.30;99.90;;;;;;4992588;28;20066;-49
2023/08/11 06:52:07;;;;;;;10.13;3.20;;;20.50;99.90;;;;;;4989296;28;20038;-49
2023/08/11 06:54:34;;;;;;;5.47;3.15;;;;;;;;;;4989459;28;20043;-49
2023/08/11 06:57:01;;;;;;;5.10;3.08;;;;;;;;;;4991825;28;20037;-49
2023/08/11 06:59:27;;;;;;;7.97;3.40;;;20.60;99.90;;;;;;5025363;28;20052;-49
2023/08/11 07:01:53;;;;;;;8.38;3.13;;;20.70;99.90;;;;;;4988259;28;20129;-50
2023/08/11 07:04:19;;;;;;;5.03;3.25;;;20.80;99.90;;;;;;4990905;28;20026;-49
2023/08/11 07:06:46;;;;;;;4.47;3.08;;;;;;;;;;4985199;28;20487;-49
2023/08/11 07:09:12;;;;;;;5.13;2.40;;;21.10;99.90;;;;;;4991381;28;20570;-50
2023/08/11 07:11:38;;;;;;;7.32;2.80;;;20.90;99.90;;;;;;4992208;28;20030;-49
2023/08/11 07:14:04;;;;;;;9.93;2.88;;;;;;;;;;4992103;28;20098;-49
2023/08/11 07:16:30;;;;;;;7.80;2.75;;;21.40;99.90;;;;;;4992042;28;20096;-48
2023/08/11 07:18:56;;;;;;;6.70;2.90;;;;;;;;;;4989330;28;20478;-48
2023/08/11 07:21:22;;;;;;;11.85;2.78;;;;;;;;;;4990157;28;20070;-49
2023/08/11 07:23:48;;;;;;;5.38;3.05;;;21.80;99.90;;;;;;4994718;28;20037;-48
2023/08/11 07:26:14;;;;;;;4.90;2.55;;;;;;;;;;4993796;28;20046;-49
2023/08/11 07:28:40;;;;;;;10.50;3.00;;;;;;;;;;4995316;28;20037;-49
2023/08/11 07:31:06;;;;;;;7.38;3.33;;;22.10;99.90;;;;;;5007277;28;20049;-50
2023/08/11 07:33:32;;;;;;;4.68;2.40;;;;;;;;;;4992465;28;20032;-53
2023/08/11 07:35:58;;;;;;;5.15;2.60;;;22.30;99.90;;;;;;5008595;28;20038;-48
2023/08/11 07:38:24;;;;;;;5.97;2.33;;;22.30;99.90;;;;;;4991928;28;20049;-48
2023/08/11 07:40:52;;;;;;;6.00;2.40;;;;;;;;;;5009516;28;20042;-48
2023/08/11 07:43:17;;;;;;;4.93;2.63;;;22.80;99.90;;;;;;5005720;28;20055;-49
2023/08/11 07:45:43;;;;;;;6.15;2.28;;;22.60;99.90;;;;;;4990124;28;20116;-52
2023/08/11 07:48:09;;;;;;;4.47;2.33;;;;;;;;;;4980148;28;20053;-50
2023/08/11 07:50:36;;;;;;;4.22;2.33;;;;;;;;;;4985680;28;20041;-50
2023/08/11 07:53:03;;;;;;;6.28;2.80;;;23.00;99.90;;;;;;4985060;28;20046;-52
2023/08/11 07:55:29;;;;;;;7.75;2.50;;;;;;;;;;4991770;28;20030;-54
2023/08/11 07:57:55;;;;;;;5.72;2.78;;;23.10;99.90;;;;;;4993081;28;20029;-51
2023/08/11 08:00:25;;;;;;;6.00;2.20;;;;;;;;;;5008058;28;20513;-50
2023/08/11 08:02:52;;;;;;;6.47;2.33;;;;;;;;;;5003764;28;20042;-53
2023/08/11 08:05:18;;;;;;;7.05;3.20;;;;;;;;;;5009149;28;20116;-48
2023/08/11 08:07:45;;;;;;;4.10;2.20;;;;;;;;;;4994461;28;20057;-52
2023/08/11 08:10:13;;;;;;;3.55;2.22;;;23.60;99.90;;;;;;5008629;28;20172;-47
2023/08/11 08:12:41;;;;;;;4.38;2.33;;;23.50;99.90;;;;;;4990677;28;20092;-51
2023/08/11 08:15:09;;;;;;;7.75;2.28;;;23.60;99.90;;;;;;4992128;28;20208;-49
2023/08/11 08:17:35;;;;;;;4.03;2.30;;;;;;;;;;4991655;28;20111;-50
2023/08/11 08:20:01;;;;;;;5.70;2.42;;;;;;;;;;4974033;28;20051;-51
2023/08/11 08:22:27;;;;;;;3.53;2.20;;;24.30;99.90;;;;;;4991183;28;20045;-51
2023/08/11 08:24:54;;;;;;;5.35;2.08;;;;;;;;;;4992198;28;20448;-53
2023/08/11 08:27:24;;;;;;;7.10;2.50;;;24.40;99.90;;;;;;4992237;28;20381;-51
2023/08/11 08:29:53;;;;;;;5.75;1.92;;;24.50;99.90;;;;;;4992127;28;20394;-50
2023/08/11 08:32:20;;;;;;;2.72;1.88;;;24.60;99.90;;;;;;4988506;28;20035;-54
2023/08/11 08:34:47;;;;;;;4.18;2.35;;;24.60;99.90;;;;;;4991719;28;20152;-50
2023/08/11 08:37:14;;;;;;;5.25;2.25;;;24.50;99.90;;;;;;4991766;28;20038;-49
2023/08/11 08:39:40;;;;;;;3.95;2.05;;;;;;;;;;4990990;28;20128;-49
2023/08/11 08:42:06;;;;;;;5.80;2.97;;;;;;;;;;4991818;28;20034;-49
2023/08/11 08:44:35;;;;;;;2.90;1.90;;;;;;;;;;4992361;28;20050;-53
2023/08/11 08:47:06;;;;;;;3.10;1.70;;;;;;;;;;4988887;28;20562;-52
2023/08/11 08:49:33;;;;;;;4.15;1.77;;;;;;;;;;4993359;28;20062;-54
2023/08/11 08:51:59;;;;;;;3.13;1.83;;;;;;;;;;4993458;28;20054;-50
2023/08/11 08:54:25;;;;;;;3.10;1.75;;;25.10;99.90;;;;;;4994106;28;20034;-51
2023/08/11 08:56:52;;;;;;;5.75;2.33;;;25.50;99.90;;;;;;4993756;28;20061;-49
2023/08/11 08:59:18;;;;;;;4.60;1.92;;;;;;;;;;4993404;28;20045;-51
2023/08/11 09:01:44;;;;;;;4.85;1.92;;;;;;;;;;4993983;28;20030;-50
2023/08/11 09:04:10;;;;;;;2.03;1.60;;;26.20;99.90;;;;;;4993588;28;20045;-52
2023/08/11 09:06:37;;;;;;;2.42;1.50;;;;;;;;;;4993621;28;20030;-52
2023/08/11 09:09:04;;;;;;;3.28;2.05;;;;;;;;;;5006966;28;20054;-51
2023/08/11 09:11:30;;;;;;;3.00;2.15;;;;;;;;;;4992271;28;20030;-51
2023/08/11 09:14:03;;;;;;;4.22;2.05;;;;;;;;;;4993189;28;20026;-50
2023/08/11 09:16:29;;;;;;;2.53;1.98;;;;;;;;;;4993612;28;20621;-52
2023/08/11 09:18:56;;;;;;;4.80;1.88;;;;;;;;;;4993024;28;20081;-50
2023/08/11 09:21:25;;;;;;;6.32;2.00;;;;;;;;;;4991666;28;20022;-51
2023/08/11 09:23:54;;;;;;;3.90;2.20;;;;;;;;;;4992649;28;20042;-50
2023/08/11 09:26:21;;;;;;;5.20;2.30;;;27.00;99.90;;;;;;4991839;28;20129;-50
2023/08/11 09:28:48;;;;;;;3.13;1.88;;;27.00;99.90;;;;;;4992893;28;20022;-52
2023/08/11 09:31:14;;;;;;;7.05;2.13;;;27.10;99.90;;;;;;4991528;28;20038;-52
2023/08/11 09:33:40;;;;;;;4.65;2.03;;;;;;;;;;4993294;28;20026;-49
2023/08/11 09:36:06;;;;;;;4.38;1.92;;;;;;;;;;5007267;28;20034;-51
2023/08/11 09:38:33;;;;;;;3.60;1.60;;;;;;;;;;4993025;28;20160;-51
2023/08/11 09:41:04;;;;;;;3.35;2.17;;;27.90;99.90;;;;;;4992644;28;20034;-51
2023/08/11 09:43:31;;;;;;;4.60;2.40;;;;;;;;;;4992816;28;20035;-51
2023/08/11 09:45:59;;;;;;;5.32;2.55;;;27.90;99.90;;;;;;4992436;28;20116;-52
2023/08/11 09:48:26;;;;;;;3.97;1.65;;;;;;;;;;4992811;28;20490;-50
2023/08/11 09:50:53;;;;;;;3.17;1.67;;;;;;;;;;4993067;28;20034;-50
2023/08/11 09:53:22;;;;;;;6.20;1.67;;;28.10;99.90;;;;;;4992502;28;20119;-51
2023/08/11 09:55:49;;;;;;;3.03;1.77;;;;;;;;;;4991732;28;20039;-52
2023/08/11 09:58:17;;;;;;;3.10;1.63;;;28.60;99.90;;;;;;4991549;28;20058;-52
2023/08/11 10:00:45;;;;;;;2.38;1.70;;;28.40;99.90;;;;;;4992647;28;20125;-52
2023/08/11 10:03:17;;;;;;;2.30;1.58;;;28.10;99.90;;;;;;5003694;28;20517;-50
2023/08/11 10:05:48;;;;;;;6.43;2.25;;;28.40;99.90;;;;;;4988809;28;20061;-53
2023/08/11 10:08:21;;;;;;;4.38;2.20;;;;;;;;;;4992069;28;20050;-51
2023/08/11 10:10:47;;;;;;;2.60;1.63;;;;;;;;;;4992721;28;20470;-51
2023/08/11 10:13:19;;;;;;;9.38;1.75;;;;;;;;;;5006841;28;20560;-51
2023/08/11 10:15:48;;;;;;;3.60;1.98;;;;;;;;;;4992731;28;20030;-52
2023/08/11 10:18:15;;;;;;;2.88;1.77;;;;;;;;;;4992778;28;20069;-50
2023/08/11 10:20:41;;;;;;;1.85;1.55;;;;;;;;;;4992775;28;20038;-49
2023/08/11 10:23:08;;;;;;;2.33;1.33;;;;;;;;;;4992570;28;20041;-51
2023/08/11 10:25:35;;;;;;;3.85;1.75;;;;;;;;;;5007605;28;20034;-49
2023/08/11 10:28:06;;;;;;;3.40;1.80;;;;;;;;;;4992329;28;20030;-49
2023/08/11 10:30:32;;;;;;;3.45;1.60;;;;;;;;;;4991864;28;20053;-50
2023/08/11 10:33:08;;;;;;;2.35;1.65;;;28.90;99.90;;;;;;4992315;28;20065;-51
2023/08/11 10:35:56;;;;;;;2.47;1.27;;;28.90;99.90;;;;;;5018266;28;20038;-52
2023/08/11 10:38:27;;;;;;;2.80;1.38;;;28.90;99.90;;;;;;4989974;28;20035;-50
2023/08/11 10:41:08;;;;;;;2.47;1.63;;;29.20;99.10;;;;;;4985317;28;20087;-52
2023/08/11 10:43:40;;;;;;;4.43;2.15;;;29.80;99.90;;;;;;4986964;28;20038;-51
2023/08/11 10:46:24;;;;;;;1.85;1.40;;;;;;;;;;4989708;28;20042;-49
2023/08/11 10:48:51;;;;;;;2.97;1.80;;;;;;;;;;4982368;28;20035;-52
2023/08/11 10:51:24;;;;;;;4.03;2.05;;;;;;;;;;4988299;28;20478;-52
2023/08/11 10:53:49;;;;;;;3.70;1.55;;;30.30;99.90;;;;;;4969352;28;20375;-51
2023/08/11 10:56:15;;;;;;;10.60;2.88;;;;;;;;;;4984594;28;20078;-51
2023/08/11 10:58:43;;;;;;;2.88;1.52;;;30.30;98.70;;;;;;4990063;28;20031;-52
2023/08/11 11:01:09;;;;;;;3.28;1.52;;;29.90;97.80;;;;;;4992888;28;20042;-51
2023/08/11 11:03:36;;;;;;;2.65;1.30;;;30.00;97.70;;;;;;5010106;28;20069;-51
2023/08/11 11:06:04;;;;;;;2.22;1.55;;;;;;;;;;4991097;28;20034;-51
2023/08/11 11:08:30;;;;;;;8.73;1.98;;;31.50;99.90;;;;;;4983393;28;20108;-52
2023/08/11 11:10:56;;;;;;;3.55;1.67;;;31.00;98.10;;;;;;4980257;28;20090;-50
2023/08/11 11:13:22;;;;;;;3.33;2.08;;;30.50;99.90;;;;;;4994351;28;20038;-53
2023/08/11 11:15:48;;;;;;;2.90;1.45;;;;;;;;;;4991987;28;20528;-52
2023/08/11 11:18:14;;;;;;;2.92;1.20;;;30.30;98.70;;;;;;4992031;28;20030;-52
2023/08/11 11:20:40;;;;;;;2.10;1.25;;;;;;;;;;4993925;28;20077;-50
2023/08/11 11:23:06;;;;;;;6.72;2.28;;;;;;;;;;4993894;28;20466;-52
2023/08/11 11:25:32;;;;;;;1.80;1.50;;;30.80;97.90;;;;;;5009478;28;20046;-53
2023/08/11 11:27:58;;;;;;;1.67;1.48;;;31.10;97.60;;;;;;5008459;28;20045;-51
2023/08/11 11:30:24;;;;;;;3.83;1.58;;;31.30;98.00;;;;;;4978335;28;20061;-51
2023/08/11 11:32:50;;;;;;;3.88;1.80;;;31.10;98.20;;;;;;4993804;28;20474;-51
2023/08/11 11:35:16;;;;;;;4.45;1.63;;;30.40;97.00;;;;;;4991828;28;20169;-50
2023/08/11 11:37:44;;;;;;;2.33;1.58;;;30.30;98.40;;;;;;5009782;28;20053;-50
2023/08/11 11:40:11;;;;;;;5.30;1.70;;;;;;;;;;4994634;28;20050;-50
2023/08/11 11:42:37;;;;;;;4.15;1.50;;;;;;;;;;5009137;28;20061;-50
2023/08/11 11:45:05;;;;;;;3.58;1.35;;;29.70;99.90;;;;;;5017151;28;20043;-51
2023/08/11 11:47:31;;;;;;;6.30;1.95;;;;;;;;;;5006720;28;20041;-51
2023/08/11 11:49:58;;;;;;;1.80;1.35;;;;;;;;;;4995052;28;20034;-50
2023/08/11 11:52:27;;;;;;;1.98;1.50;;;;;;;;;;4994512;28;20034;-52
2023/08/11 11:54:54;;;;;;;3.78;1.70;;;;;;;;;;5009531;28;20083;-51
2023/08/11 11:57:23;;;;;;;1.85;1.50;;;;;;;;;;4994860;28;20038;-50
2023/08/11 11:59:56;;;;;;;2.25;1.60;;;31.50;99.90;;;;;;4990248;28;20049;-52
2023/08/11 12:02:22;;;;;;;3.00;1.80;;;29.00;98.00;;;;;;4994937;28;20027;-49
2023/08/11 12:05:08;;;;;;;2.40;1.48;;;29.10;98.70;;;;;;5008977;28;20509;-51
2023/08/11 12:07:36;;;;;;;3.72;1.90;;;29.10;98.20;;;;;;4977723;28;20046;-51
2023/08/11 12:10:04;;;;;;;2.70;1.60;;;29.60;99.40;;;;;;5010871;28;20045;-49
2023/08/11 12:12:30;;;;;;;3.30;1.80;;;30.30;96.70;;;;;;5011314;28;20072;-51
2023/08/11 12:15:04;;;;;;;1.77;1.42;;;30.00;96.90;;;;;;5011507;28;20081;-51
2023/08/11 12:17:36;;;;;;;1.88;1.42;;;29.80;97.40;;;;;;4977686;28;20521;-51
2023/08/11 12:20:08;;;;;;;2.00;1.55;;;30.00;97.60;;;;;;5006232;28;20045;-50
2023/08/11 12:22:33;;;;;;;2.42;1.58;;;29.80;97.50;;;;;;5011398;28;20042;-50
2023/08/11 12:24:59;;;;;;;3.30;1.58;;;30.10;98.30;;;;;;5011092;28;20044;-49
2023/08/11 12:27:25;;;;;;;1.92;1.40;;;30.60;98.10;;;;;;5010448;28;20525;-51
2023/08/11 12:29:51;;;;;;;2.97;1.33;;;30.50;98.00;;;;;;5010962;28;20136;-51
2023/08/11 12:32:18;;;;;;;2.38;1.63;;;30.50;96.90;;;;;;5009228;28;20121;-48
2023/08/11 12:34:44;;;;;;;4.03;1.60;;;30.50;96.00;;;;;;4994539;28;20133;-50
2023/08/11 12:37:09;;;;;;;3.08;1.52;;;30.70;97.50;;;;;;5010123;28;20121;-51
2023/08/11 12:39:35;;;;;;;4.85;1.70;;;30.20;97.00;;;;;;4994142;28;20108;-50
2023/08/11 12:42:01;;;;;;;3.33;1.27;;;30.30;97.80;;;;;;4986873;28;20069;-47
2023/08/11 12:44:27;;;;;;;2.60;1.70;;;30.10;96.80;;;;;;4991746;28;20065;-50
2023/08/11 12:46:52;;;;;;;3.17;1.45;;;29.90;95.90;;;;;;4989598;28;20053;-48
2023/08/11 12:49:18;;;;;;;3.47;1.50;;;30.00;95.90;;;;;;4992655;28;20035;-49
2023/08/11 12:51:44;;;;;;;2.22;1.42;;;;;;;;;;4993416;28;20030;-48
2023/08/11 12:54:10;;;;;;;2.17;1.63;;;30.90;96.30;;;;;;4993220;28;20030;-48
2023/08/11 12:56:36;;;;;;;3.10;1.20;;;;;;;;;;4992630;28;20026;-48
2023/08/11 12:59:03;;;;;;;4.03;1.58;;;;;;;;;;4993835;28;20044;-50
2023/08/11 13:01:29;;;;;;;2.10;1.45;;;;;;;;;;4993288;28;20360;-49
2023/08/11 13:03:56;;;;;;;3.35;1.30;;;;;;;;;;4992550;28;20493;-50
2023/08/11 13:06:22;;;;;;;4.32;1.58;;;;;;;;;;4989301;28;20109;-52
2023/08/11 13:08:50;;;;;;;3.13;1.40;;;32.50;95.00;;;;;;4989353;28;20486;-48
2023/08/11 13:11:16;;;;;;;2.30;1.40;;;;;;;;;;4992150;28;20038;-48
2023/08/11 13:13:41;;;;;;;1.40;1.15;;;31.50;94.10;;;;;;5005757;28;20042;-59
2023/08/11 13:16:08;;;;;;;2.35;1.63;;;31.40;95.20;;;;;;4993010;28;20432;-54
2023/08/11 13:18:34;;;;;;;1.45;1.30;;;31.50;95.60;;;;;;4962306;28;20038;-51
2023/08/11 13:20:59;;;;;;;3.67;1.83;;;31.70;95.10;;;;;;4974732;28;20022;-50